Time;durP1;ratioP1;P1;durP2;ratioP2;P2;SDS_P1;SDS_P2;PMS_P1;PMS_P2;Temp;Humidity;BMP_temperature;BMP_pressure;BME280_temperature;BME280_humidity;BME280_pressure;Samples;Min_cycle;Max_cycle;Signal;HPM_P1;HPM_P2
2023/09/30 00:01:36;;;;;;;11.57;4.50;;;;;;;10.17;100.00;102583.28;5050868;28;20040;-80
2023/09/30 00:04:03;;;;;;;16.38;5.28;;;;;;;10.14;100.00;102583.47;5051217;28;20079;-80
2023/09/30 00:06:28;;;;;;;12.30;4.25;;;;;;;10.12;100.00;102582.72;5051034;28;20033;-79
2023/09/30 00:08:54;;;;;;;9.38;4.60;;;;;;;10.13;100.00;102584.44;5051303;28;20029;-79
2023/09/30 00:11:19;;;;;;;9.45;4.00;;;;;;;10.17;100.00;102585.97;5051226;28;20048;-79
2023/09/30 00:13:45;;;;;;;10.30;4.10;;;;;;;10.19;100.00;102586.72;5050855;28;20094;-79
2023/09/30 00:16:11;;;;;;;11.13;4.50;;;;;;;10.21;100.00;102586.59;5051158;28;20044;-79
2023/09/30 00:18:36;;;;;;;10.35;4.10;;;;;;;10.21;100.00;102587.50;5050825;28;20033;-78
2023/09/30 00:21:02;;;;;;;6.72;3.50;;;;;;;10.22;100.00;102588.34;5050757;28;20350;-80
2023/09/30 00:23:28;;;;;;;11.10;4.32;;;;;;;10.26;100.00;102592.53;5050517;28;20118;-80
2023/09/30 00:25:54;;;;;;;8.40;3.75;;;;;;;10.28;100.00;102595.94;5052090;28;20068;-78
2023/09/30 00:28:19;;;;;;;8.90;3.80;;;;;;;10.30;100.00;102595.84;5051520;28;20111;-79
2023/09/30 00:30:47;;;;;;;11.95;3.95;;;;;;;10.32;100.00;102591.28;5051687;28;20033;-80
2023/09/30 00:33:13;;;;;;;7.88;4.10;;;;;;;10.31;100.00;102581.59;5049873;28;20128;-80
2023/09/30 00:35:39;;;;;;;9.50;4.00;;;;;;;10.28;100.00;102592.44;5050400;28;20137;-80
2023/09/30 00:38:04;;;;;;;8.93;4.28;;;;;;;10.25;100.00;102598.78;5049986;28;20501;-80
2023/09/30 00:40:29;;;;;;;10.32;3.67;;;;;;;10.22;100.00;102602.47;5050736;28;20033;-79
2023/09/30 00:42:55;;;;;;;7.68;4.22;;;;;;;10.18;100.00;102624.03;5049664;28;20048;-80
2023/09/30 00:45:21;;;;;;;9.75;4.25;;;;;;;10.14;100.00;102618.06;5032708;28;20120;-80
2023/09/30 00:47:46;;;;;;;9.30;3.63;;;;;;;10.10;100.00;102613.88;5050662;28;20113;-81
2023/09/30 00:50:13;;;;;;;9.65;4.45;;;;;;;10.10;100.00;102616.53;5048760;28;20140;-79
2023/09/30 00:52:39;;;;;;;8.70;3.80;;;;;;;10.07;100.00;102612.25;5030661;28;20049;-81
2023/09/30 00:55:06;;;;;;;10.20;4.40;;;;;;;10.09;100.00;102608.66;5030900;28;20045;-80
2023/09/30 00:57:32;;;;;;;10.48;3.88;;;;;;;10.10;100.00;102613.03;5030203;28;20092;-80
2023/09/30 00:59:59;;;;;;;13.57;3.78;;;;;;;10.08;100.00;102626.41;5013067;28;20055;-79
2023/09/30 01:02:25;;;;;;;12.48;4.32;;;;;;;10.06;100.00;102641.59;5030920;28;20134;-79
2023/09/30 01:04:50;;;;;;;12.25;4.03;;;;;;;10.03;100.00;102645.31;5012787;28;20488;-79
2023/09/30 01:07:15;;;;;;;10.82;3.72;;;;;;;10.00;100.00;102634.88;5030652;28;20034;-78
2023/09/30 01:09:41;;;;;;;12.48;4.45;;;;;;;9.99;100.00;102632.28;5030650;28;20060;-80
2023/09/30 01:12:08;;;;;;;9.77;3.80;;;;;;;9.97;100.00;102632.38;5030703;28;20044;-81
2023/09/30 01:14:35;;;;;;;12.82;4.63;;;;;;;9.94;100.00;102626.38;5030642;28;20064;-79
2023/09/30 01:17:01;;;;;;;10.40;3.92;;;;;;;9.94;100.00;102632.56;5030431;28;20068;-80
2023/09/30 01:19:27;;;;;;;10.65;4.20;;;;;;;9.94;100.00;102624.59;5012667;28;20033;-80
2023/09/30 01:22:03;;;;;;;10.57;4.40;;;;;;;9.96;100.00;102613.88;5030297;28;20033;-78
2023/09/30 01:24:29;;;;;;;10.52;4.20;;;;;;;9.97;100.00;102616.44;5031726;28;20101;-80
2023/09/30 01:26:55;;;;;;;12.25;4.18;;;;;;;9.95;100.00;102618.31;5030221;28;20030;-79
2023/09/30 01:29:22;;;;;;;9.27;4.10;;;;;;;9.98;100.00;102625.25;5032203;28;20041;-79
2023/09/30 01:31:47;;;;;;;10.85;4.07;;;;;;;9.97;100.00;102631.50;5012480;28;20375;-80
2023/09/30 01:34:13;;;;;;;13.23;4.90;;;;;;;9.96;100.00;102630.66;5030581;28;20142;-79
2023/09/30 01:36:39;;;;;;;10.30;4.20;;;;;;;9.97;100.00;102624.41;5013007;28;20333;-80
2023/09/30 01:39:04;;;;;;;10.38;4.47;;;;;;;9.94;100.00;102613.97;5034417;28;20036;-80
2023/09/30 01:41:30;;;;;;;14.50;4.40;;;;;;;9.92;100.00;102623.81;5034321;28;20037;-80
2023/09/30 01:43:56;;;;;;;9.90;4.05;;;;;;;9.93;100.00;102622.00;5016121;28;20029;-79
2023/09/30 01:46:22;;;;;;;12.50;4.38;;;;;;;9.93;100.00;102616.69;5034030;28;20037;-79
2023/09/30 01:48:48;;;;;;;10.25;4.25;;;;;;;9.97;100.00;102634.16;5033656;28;20037;-81
2023/09/30 01:51:13;;;;;;;10.63;4.10;;;;;;;9.97;100.00;102631.50;5033876;28;20401;-80
2023/09/30 01:53:39;;;;;;;8.82;3.88;;;;;;;10.03;100.00;102652.41;4999774;28;20040;-80
2023/09/30 01:56:05;;;;;;;9.38;4.15;;;;;;;10.07;100.00;102638.00;5034339;28;20025;-79
2023/09/30 01:58:30;;;;;;;11.35;4.60;;;;;;;10.13;100.00;102636.78;5034720;28;20035;-79
2023/09/30 02:01:03;;;;;;;14.57;4.28;;;;;;;10.17;100.00;102633.84;5034531;28;20124;-80
2023/09/30 02:03:29;;;;;;;11.65;3.92;;;;;;;10.19;100.00;102628.41;5016926;28;20381;-80
2023/09/30 02:05:54;;;;;;;9.27;4.35;;;;;;;10.20;100.00;102631.00;5033442;28;20057;-79
2023/09/30 02:08:20;;;;;;;10.95;4.95;;;;;;;10.23;100.00;102621.97;5015851;28;20051;-79
2023/09/30 02:10:45;;;;;;;17.08;5.88;;;;;;;10.30;100.00;102630.41;5033700;28;20037;-78
2023/09/30 02:13:10;;;;;;;11.35;5.40;;;;;;;10.36;100.00;102625.63;5034292;28;20474;-79
2023/09/30 02:15:40;;;;;;;14.70;5.72;;;;;;;10.37;100.00;102618.50;5034489;28;20033;-77
2023/09/30 02:18:06;;;;;;;17.17;6.13;;;;;;;10.41;100.00;102614.69;5033397;28;20087;-78
2023/09/30 02:20:32;;;;;;;12.82;5.28;;;;;;;10.41;100.00;102615.53;5033031;28;20045;-78
2023/09/30 02:22:58;;;;;;;13.18;5.95;;;;;;;10.43;100.00;102619.94;5032758;28;20382;-78
2023/09/30 02:25:25;;;;;;;9.27;4.95;;;;;;;10.45;100.00;102626.00;5032248;28;20384;-78
2023/09/30 02:27:51;;;;;;;11.23;5.10;;;;;;;10.43;100.00;102620.78;5033086;28;20029;-77
2023/09/30 02:30:17;;;;;;;15.27;5.60;;;;;;;10.41;100.00;102620.03;5032657;28;20176;-77
2023/09/30 02:32:45;;;;;;;13.68;5.22;;;;;;;10.38;100.00;102617.56;5032412;28;20386;-77
2023/09/30 02:35:11;;;;;;;10.80;4.97;;;;;;;10.36;100.00;102617.66;5033091;28;20029;-77
2023/09/30 02:37:37;;;;;;;12.18;5.13;;;;;;;10.35;100.00;102613.28;5032641;28;20036;-77
2023/09/30 02:40:10;;;;;;;11.45;4.93;;;;;;;10.34;100.00;102616.03;5032679;28;20093;-77
2023/09/30 02:42:40;;;;;;;9.52;4.68;;;;;;;10.33;100.00;102617.84;5032590;28;20053;-76
2023/09/30 02:45:06;;;;;;;11.15;5.07;;;;;;;10.36;100.00;102627.41;5031938;28;20025;-76
2023/09/30 02:47:32;;;;;;;13.32;5.72;;;;;;;10.38;100.00;102625.53;5032411;28;20182;-77
2023/09/30 02:49:58;;;;;;;18.88;6.90;;;;;;;10.42;100.00;102627.06;5032381;28;20098;-77
2023/09/30 02:52:24;;;;;;;14.23;5.88;;;;;;;10.46;100.00;102625.06;5033818;28;20046;-77
2023/09/30 02:54:50;;;;;;;20.20;7.60;;;;;;;10.48;100.00;102615.16;5032036;28;20037;-77
2023/09/30 02:57:15;;;;;;;19.83;6.95;;;;;;;10.50;100.00;102619.44;5032325;28;20029;-77
2023/09/30 02:59:41;;;;;;;18.95;6.60;;;;;;;10.52;100.00;102609.56;5031854;28;20036;-76
2023/09/30 03:02:06;;;;;;;21.45;7.90;;;;;;;10.55;100.00;102605.84;5013859;28;20066;-77
2023/09/30 03:04:32;;;;;;;14.48;7.10;;;;;;;10.55;100.00;102604.06;5031933;28;20477;-77
2023/09/30 03:06:58;;;;;;;16.65;7.20;;;;;;;10.57;100.00;102611.97;5032385;28;20026;-77
2023/09/30 03:09:23;;;;;;;18.58;7.40;;;;;;;10.59;100.00;102616.22;5032043;28;20098;-77
2023/09/30 03:11:49;;;;;;;21.67;7.53;;;;;;;10.62;100.00;102615.16;5031797;28;20053;-77
2023/09/30 03:14:15;;;;;;;18.80;8.02;;;;;;;10.63;100.00;102616.88;5032148;28;20496;-77
2023/09/30 03:16:41;;;;;;;18.95;8.88;;;;;;;10.65;100.00;102609.66;5031748;28;20108;-77
2023/09/30 03:19:08;;;;;;;26.25;9.13;;;;;;;10.67;100.00;102599.75;5031804;28;20156;-77
2023/09/30 03:21:35;;;;;;;24.15;8.55;;;;;;;10.68;100.00;102612.13;5031687;28;20056;-77
2023/09/30 03:24:02;;;;;;;27.38;9.98;;;;;;;10.68;100.00;102609.47;5013584;28;20029;-77
2023/09/30 03:26:29;;;;;;;30.50;10.23;;;;;;;10.68;100.00;102611.28;5031874;28;20081;-77
2023/09/30 03:28:54;;;;;;;22.27;10.00;;;;;;;10.71;100.00;102605.75;5013911;28;20039;-78
2023/09/30 03:31:20;;;;;;;21.67;9.77;;;;;;;10.71;100.00;102613.75;5031519;28;20120;-77
2023/09/30 03:33:47;;;;;;;18.67;8.77;;;;;;;10.70;100.00;102615.56;5031378;28;20057;-77
2023/09/30 03:36:13;;;;;;;25.55;10.05;;;;;;;10.70;100.00;102618.22;5013417;28;20045;-77
2023/09/30 03:38:39;;;;;;;22.15;9.10;;;;;;;10.71;100.00;102617.25;5031826;28;20034;-77
2023/09/30 03:41:08;;;;;;;26.17;10.73;;;;;;;10.72;100.00;102615.47;5030859;28;20076;-76
2023/09/30 03:43:35;;;;;;;23.10;9.40;;;;;;;10.75;100.00;102609.94;5031515;28;20121;-76
2023/09/30 03:46:00;;;;;;;29.83;11.85;;;;;;;10.77;100.00;102610.69;5031056;28;20048;-77
2023/09/30 03:48:26;;;;;;;23.65;11.18;;;;;;;10.81;100.00;102606.88;5012992;28;20034;-76
2023/09/30 03:50:52;;;;;;;37.40;11.90;;;;;;;10.82;100.00;102608.56;5019707;28;20052;-77
2023/09/30 03:53:18;;;;;;;30.65;12.27;;;;;;;10.82;100.00;102605.06;5051220;28;20033;-77
2023/09/30 03:55:43;;;;;;;22.98;11.05;;;;;;;10.83;100.00;102620.09;5051171;28;20102;-77
2023/09/30 03:58:08;;;;;;;36.58;12.63;;;;;;;10.82;100.00;102610.41;5051123;28;20044;-77
2023/09/30 04:00:35;;;;;;;25.85;11.23;;;;;;;10.84;100.00;102617.34;5050434;28;20036;-76
2023/09/30 04:03:00;;;;;;;31.85;11.98;;;;;;;10.83;100.00;102618.28;5050750;28;20085;-77
2023/09/30 04:05:29;;;;;;;26.75;11.27;;;;;;;10.82;100.00;102613.06;5050611;28;20029;-76
2023/09/30 04:07:56;;;;;;;29.65;11.55;;;;;;;10.85;100.00;102610.19;5050702;28;20120;-82
2023/09/30 04:10:22;;;;;;;31.45;12.18;;;;;;;10.86;100.00;102611.91;5050626;28;20036;-77
2023/09/30 04:12:48;;;;;;;32.13;11.68;;;;;;;10.87;100.00;102602.97;5049130;28;20083;-77
2023/09/30 04:15:13;;;;;;;42.45;14.10;;;;;;;10.89;100.00;102609.91;5050655;28;20060;-76
2023/09/30 04:17:39;;;;;;;30.33;12.75;;;;;;;10.89;100.00;102620.56;5050585;28;20087;-76
2023/09/30 04:20:10;;;;;;;33.40;12.02;;;;;;;10.89;100.00;102620.56;5050372;28;20045;-77
2023/09/30 04:22:36;;;;;;;30.33;12.38;;;;;;;10.87;100.00;102622.47;5049378;28;20054;-77
2023/09/30 04:25:08;;;;;;;29.77;12.57;;;;;;;10.87;100.00;102633.13;5050042;28;20464;-77
2023/09/30 04:27:33;;;;;;;28.55;13.02;;;;;;;10.88;100.00;102633.97;5050534;28;20060;-77
2023/09/30 04:29:59;;;;;;;24.73;11.98;;;;;;;10.87;100.00;102624.28;5050280;28;20395;-79
2023/09/30 04:32:27;;;;;;;32.53;12.45;;;;;;;10.86;100.00;102630.56;5050480;28;20060;-77
2023/09/30 04:34:52;;;;;;;25.85;11.07;;;;;;;10.83;100.00;102636.06;5050064;28;20484;-77
2023/09/30 04:37:18;;;;;;;24.35;11.80;;;;;;;10.81;100.00;102635.31;5048885;28;20102;-77
2023/09/30 04:39:44;;;;;;;33.55;13.52;;;;;;;10.78;100.00;102636.38;5050375;28;20503;-77
2023/09/30 04:42:11;;;;;;;28.05;11.40;;;;;;;10.77;100.00;102635.50;5050181;28;20121;-77
2023/09/30 04:44:38;;;;;;;33.28;13.57;;;;;;;10.79;100.00;102640.72;5050028;28;20497;-77
2023/09/30 04:47:04;;;;;;;34.20;13.55;;;;;;;10.82;100.00;102635.19;5050293;28;20109;-77
2023/09/30 04:49:30;;;;;;;34.95;14.13;;;;;;;10.83;100.00;102628.09;5050103;28;20039;-77
2023/09/30 04:51:56;;;;;;;31.23;12.90;;;;;;;10.85;100.00;102639.47;5036037;28;20068;-77
2023/09/30 04:54:21;;;;;;;33.65;13.85;;;;;;;10.86;100.00;102636.72;5030200;28;20034;-77
2023/09/30 04:56:47;;;;;;;31.95;13.20;;;;;;;10.84;100.00;102628.00;5030375;28;20047;-77
2023/09/30 04:59:12;;;;;;;35.25;14.85;;;;;;;10.86;100.00;102628.75;5030491;28;20045;-79
2023/09/30 05:01:38;;;;;;;30.73;13.85;;;;;;;10.87;100.00;102625.13;5030698;28;20052;-78
2023/09/30 05:04:03;;;;;;;31.17;12.68;;;;;;;10.89;100.00;102630.34;5030181;28;20072;-87
2023/09/30 05:06:29;;;;;;;39.78;15.52;;;;;;;10.94;100.00;102638.91;5030575;28;20095;-79
2023/09/30 05:08:55;;;;;;;30.35;14.15;;;;;;;10.97;100.00;102628.03;5012327;28;20034;-79
2023/09/30 05:11:20;;;;;;;32.97;15.15;;;;;;;11.00;100.00;102637.66;5030197;28;20426;-78
2023/09/30 05:13:46;;;;;;;37.08;15.50;;;;;;;11.00;100.00;102641.19;5016331;28;20045;-78
2023/09/30 05:16:12;;;;;;;31.55;15.88;;;;;;;10.99;100.00;102642.16;5033818;28;20041;-79
2023/09/30 05:18:38;;;;;;;31.75;14.65;;;;;;;10.98;100.00;102636.91;5034440;28;20037;-79
2023/09/30 05:21:03;;;;;;;34.65;15.27;;;;;;;10.96;100.00;102639.69;5033693;28;20079;-78
2023/09/30 05:23:29;;;;;;;32.13;15.02;;;;;;;10.93;100.00;102642.53;5033371;28;20476;-79
2023/09/30 05:25:54;;;;;;;33.88;15.18;;;;;;;10.89;100.00;102638.34;5034008;28;20044;-78
2023/09/30 05:28:20;;;;;;;38.50;13.95;;;;;;;10.82;100.00;102627.22;5034091;28;20116;-79
2023/09/30 05:30:46;;;;;;;34.92;14.57;;;;;;;10.78;100.00;102639.03;5034258;28;20041;-79
2023/09/30 05:33:14;;;;;;;31.02;13.65;;;;;;;10.76;100.00;102648.91;5034146;28;20093;-79
2023/09/30 05:35:40;;;;;;;31.67;14.10;;;;;;;10.76;100.00;102646.25;5035907;28;20087;-78
2023/09/30 05:38:07;;;;;;;26.80;13.68;;;;;;;10.70;100.00;102646.63;5033615;28;20474;-79
2023/09/30 05:40:33;;;;;;;28.65;13.38;;;;;;;10.68;100.00;102649.38;5033764;28;20072;-79
2023/09/30 05:42:59;;;;;;;31.27;14.55;;;;;;;10.65;100.00;102646.91;5033921;28;20060;-79
2023/09/30 05:45:26;;;;;;;26.40;13.63;;;;;;;10.63;100.00;102651.50;5033666;28;20183;-79
2023/09/30 05:47:52;;;;;;;29.73;14.30;;;;;;;10.64;100.00;102653.19;5033783;28;20140;-78
2023/09/30 05:50:23;;;;;;;39.22;16.55;;;;;;;10.68;100.00;102651.22;5033215;28;20125;-78
2023/09/30 05:52:50;;;;;;;51.33;20.27;;;;;;;10.72;100.00;102645.59;5033959;28;20112;-79
2023/09/30 05:55:19;;;;;;;55.25;20.50;;;;;;;10.81;100.00;102646.81;5033987;28;20156;-79
2023/09/30 05:57:45;;;;;;;48.83;21.58;;;;;;;10.90;100.00;102645.41;5033668;28;20140;-79
2023/09/30 06:00:20;;;;;;;47.03;20.23;;;;;;;10.99;100.00;102650.13;5016145;28;20128;-79
2023/09/30 06:02:47;;;;;;;54.10;21.00;;;;;;;11.09;100.00;102645.06;5033866;28;20100;-79
2023/09/30 06:05:15;;;;;;;46.22;19.95;;;;;;;11.20;100.00;102645.22;5033415;28;20029;-79
2023/09/30 06:07:41;;;;;;;49.38;21.23;;;;;;;11.28;100.00;102656.22;5033869;28;20470;-79
2023/09/30 06:10:09;;;;;;;49.85;20.95;;;;;;;11.38;100.00;102655.66;5033401;28;20091;-78
2023/09/30 06:12:34;;;;;;;48.78;21.48;;;;;;;11.46;100.00;102664.88;5033218;28;20060;-79
2023/09/30 06:15:02;;;;;;;46.05;21.45;;;;;;;11.53;100.00;102659.97;5033507;28;20049;-79
2023/09/30 06:17:27;;;;;;;52.78;22.35;;;;;;;11.60;100.00;102658.63;5033621;28;20064;-79
2023/09/30 06:19:52;;;;;;;45.05;20.35;;;;;;;11.68;100.00;102659.94;5033178;28;20323;-79
2023/09/30 06:22:18;;;;;;;55.70;22.75;;;;;;;11.74;100.00;102664.84;5032735;28;20374;-79
2023/09/30 06:24:43;;;;;;;43.35;20.67;;;;;;;11.80;100.00;102688.44;5015112;28;20041;-78
2023/09/30 06:27:13;;;;;;;47.53;21.02;;;;;;;11.86;100.00;102687.19;5033155;28;20112;-79
2023/09/30 06:29:38;;;;;;;48.38;20.90;;;;;;;11.90;100.00;102697.53;5015045;28;20068;-79
2023/09/30 06:32:03;;;;;;;49.08;21.02;;;;;;;11.90;100.00;102699.38;5032839;28;20069;-79
2023/09/30 06:34:29;;;;;;;43.05;18.83;;;;;;;11.86;100.00;102692.53;5033099;28;20476;-79
2023/09/30 06:36:55;;;;;;;45.15;19.83;;;;;;;11.82;100.00;102699.84;5032948;28;20029;-79
2023/09/30 06:39:20;;;;;;;39.08;19.60;;;;;;;11.76;100.00;102689.59;5033378;28;20083;-80
2023/09/30 06:41:46;;;;;;;48.53;20.85;;;;;;;11.74;100.00;102688.84;5032991;28;20036;-79
2023/09/30 06:44:12;;;;;;;47.40;22.10;;;;;;;11.73;100.00;102697.78;5014968;28;20033;-79
2023/09/30 06:46:39;;;;;;;44.65;18.55;;;;;;;11.70;100.00;102700.66;5032144;28;20053;-79
2023/09/30 06:49:04;;;;;;;45.78;20.83;;;;;;;11.70;100.00;102708.66;5032245;28;20180;-79
2023/09/30 06:51:30;;;;;;;57.13;21.40;;;;;;;11.73;100.00;102711.97;5034336;28;20089;-79
2023/09/30 06:53:56;;;;;;;53.35;22.58;;;;;;;11.75;100.00;102707.41;5032465;28;20120;-79
2023/09/30 06:56:21;;;;;;;53.10;22.95;;;;;;;11.84;100.00;102711.28;5014681;28;20061;-80
2023/09/30 06:58:46;;;;;;;50.85;23.90;;;;;;;11.90;100.00;102713.53;5032352;28;20084;-79
2023/09/30 07:01:16;;;;;;;54.22;23.38;;;;;;;11.98;100.00;102721.91;5032388;28;20073;-79
2023/09/30 07:03:42;;;;;;;63.40;24.58;;;;;;;12.09;100.00;102713.22;5032485;28;20041;-79
2023/09/30 07:06:08;;;;;;;54.92;24.33;;;;;;;12.23;100.00;102725.59;5031856;28;20155;-79
2023/09/30 07:08:33;;;;;;;57.75;25.73;;;;;;;12.37;100.00;102723.81;5032051;28;20030;-80
2023/09/30 07:10:58;;;;;;;59.50;24.83;;;;;;;12.50;100.00;102724.69;5032239;28;20124;-79
2023/09/30 07:13:24;;;;;;;52.00;24.48;;;;;;;12.62;100.00;102731.00;5032340;28;20041;-82
2023/09/30 07:15:50;;;;;;;55.42;23.77;;;;;;;12.73;100.00;102732.91;5032021;28;20030;-81
2023/09/30 07:18:15;;;;;;;47.08;22.52;;;;;;;12.81;100.00;102736.75;5032622;28;20299;-80
2023/09/30 07:20:41;;;;;;;53.45;21.35;;;;;;;12.80;100.00;102737.72;5014098;28;20037;-81
2023/09/30 07:23:08;;;;;;;42.97;20.17;;;;;;;12.80;100.00;102742.22;5032060;28;20097;-81
2023/09/30 07:25:34;;;;;;;43.00;20.52;;;;;;;12.79;100.00;102743.16;5031896;28;20164;-81
2023/09/30 07:28:00;;;;;;;48.33;20.20;;;;;;;12.77;100.00;102737.09;5031779;28;20043;-80
2023/09/30 07:30:26;;;;;;;43.85;20.00;;;;;;;12.87;100.00;102751.50;5031551;28;20035;-81
2023/09/30 07:32:51;;;;;;;54.22;21.55;;;;;;;12.99;100.00;102752.47;5031731;28;20025;-80
2023/09/30 07:35:17;;;;;;;49.63;20.35;;;;;;;13.14;100.00;102750.53;5031071;28;20065;-80
2023/09/30 07:37:43;;;;;;;44.00;20.02;;;;;;;13.24;100.00;102740.84;5031740;28;20088;-80
2023/09/30 07:40:10;;;;;;;39.30;18.40;;;;;;;13.35;100.00;102740.13;5031839;28;20033;-81
2023/09/30 07:42:36;;;;;;;44.53;17.55;;;;;;;13.39;100.00;102739.81;5031597;28;20064;-81
2023/09/30 07:45:03;;;;;;;38.85;16.25;;;;;;;13.62;100.00;102742.63;5031210;28;20065;-81
2023/09/30 07:47:30;;;;;;;35.00;16.10;;;;;;;13.80;100.00;102739.56;5031372;28;20056;-81
2023/09/30 07:49:56;;;;;;;40.30;16.65;;;;;;;14.07;100.00;102737.47;5031611;28;20029;-80
2023/09/30 07:52:21;;;;;;;34.63;15.20;;;;;;;14.45;100.00;102736.38;5031743;28;20409;-80
2023/09/30 07:54:47;;;;;;;29.02;13.43;;;;;;;14.66;100.00;102730.38;5031292;28;20040;-80
2023/09/30 07:57:12;;;;;;;27.58;13.20;;;;;;;14.83;100.00;102731.72;5031563;28;20056;-81
2023/09/30 07:59:38;;;;;;;20.00;10.30;;;;;;;14.95;100.00;102716.50;5013401;28;20037;-80
2023/09/30 08:02:04;;;;;;;21.30;10.25;;;;;;;15.03;100.00;102724.75;5031182;28;20330;-80
2023/09/30 08:04:30;;;;;;;19.77;8.98;;;;;;;14.98;100.00;102716.25;5031414;28;20156;-80
2023/09/30 08:06:56;;;;;;;26.83;9.40;;;;;;;14.99;100.00;102717.94;5031052;28;20030;-79
2023/09/30 08:09:23;;;;;;;23.20;9.55;;;;;;;14.95;100.00;102719.16;5030961;28;20033;-79
2023/09/30 08:11:50;;;;;;;16.25;8.70;;;;;;;14.90;100.00;102727.56;4996606;28;20037;-80
2023/09/30 08:14:16;;;;;;;20.58;8.60;;;;;;;14.86;100.00;102722.59;5013035;28;20421;-78
2023/09/30 08:16:42;;;;;;;27.10;9.13;;;;;;;14.83;100.00;102728.19;5031301;28;20044;-81
2023/09/30 08:19:08;;;;;;;22.42;9.50;;;;;;;14.79;100.00;102728.44;5030966;28;20065;-79
2023/09/30 08:21:33;;;;;;;22.05;9.00;;;;;;;14.81;100.00;102717.59;5030909;28;20072;-81
2023/09/30 08:23:59;;;;;;;17.13;7.93;;;;;;;14.83;100.00;102714.78;5030970;28;20361;-79
2023/09/30 08:26:25;;;;;;;18.48;8.27;;;;;;;14.94;100.00;102715.66;5030880;28;20109;-79
2023/09/30 08:28:50;;;;;;;17.02;7.18;;;;;;;15.27;100.00;102713.03;5030268;28;20061;-81
2023/09/30 08:31:16;;;;;;;16.17;7.07;;;;;;;15.57;100.00;102708.81;5030581;28;20064;-81
2023/09/30 08:33:43;;;;;;;16.27;7.72;;;;;;;16.23;100.00;102719.44;5030467;28;20450;-81
2023/09/30 08:36:10;;;;;;;15.02;7.10;;;;;;;16.70;100.00;102706.41;5030324;28;20091;-82
2023/09/30 08:38:40;;;;;;;17.80;6.72;;;;;;;17.25;100.00;102716.84;5012512;28;20096;-83
2023/09/30 08:41:07;;;;;;;18.60;6.10;;;;;;;17.91;100.00;102720.78;5012838;28;20032;-80
2023/09/30 08:43:39;;;;;;;13.70;5.90;;;;;;;18.45;100.00;102728.38;5030565;28;20185;-82
2023/09/30 08:46:05;;;;;;;17.10;5.53;;;;;;;19.09;100.00;102732.16;5030436;28;20113;-82
2023/09/30 08:48:32;;;;;;;17.38;5.05;;;;;;;19.70;100.00;102733.34;5030244;28;20189;-81
2023/09/30 08:50:59;;;;;;;13.93;4.93;;;;;;;19.89;100.00;102732.38;5029627;28;20107;-80
2023/09/30 08:53:25;;;;;;;15.65;4.57;;;;;;;19.35;100.00;102739.56;5030483;28;20026;-80
2023/09/30 08:55:55;;;;;;;18.00;5.95;;;;;;;18.75;100.00;102750.72;5030283;28;20394;-81
2023/09/30 08:58:24;;;;;;;16.55;4.57;;;;;;;18.20;100.00;102752.25;5030330;28;20025;-76
2023/09/30 09:00:50;;;;;;;20.30;5.32;;;;;;;18.17;100.00;102759.75;5030500;28;20116;-79
2023/09/30 09:03:18;;;;;;;16.00;6.00;;;;;;;18.32;100.00;102777.19;5030375;28;20119;-82
2023/09/30 09:05:43;;;;;;;12.15;4.80;;;;;;;18.11;100.00;102782.75;5030162;28;20052;-81
2023/09/30 09:08:09;;;;;;;13.15;5.03;;;;;;;17.96;100.00;102782.31;5030104;28;20132;-80
2023/09/30 09:10:35;;;;;;;15.93;5.20;;;;;;;18.68;100.00;102786.34;5029991;28;20037;-82
2023/09/30 09:13:00;;;;;;;14.50;5.30;;;;;;;19.80;100.00;102778.38;5029812;28;20108;-81
2023/09/30 09:15:31;;;;;;;14.10;4.97;;;;;;;20.80;100.00;102778.19;4995984;28;20037;-77
2023/09/30 09:17:57;;;;;;;12.40;4.88;;;;;;;21.55;100.00;102772.94;5030187;28;20029;-77
2023/09/30 09:20:25;;;;;;;13.55;4.65;;;;;;;22.21;100.00;102780.31;5030112;28;20052;-77
2023/09/30 09:22:55;;;;;;;12.52;4.93;;;;;;;22.39;100.00;102778.28;5030232;28;20080;-72
2023/09/30 09:25:24;;;;;;;9.38;3.53;;;;;;;22.29;100.00;102773.03;5030091;28;20045;-71
2023/09/30 09:27:53;;;;;;;10.25;2.97;;;;;;;22.18;100.00;102776.06;5030302;28;20048;-71
2023/09/30 09:30:21;;;;;;;11.55;3.35;;;;;;;22.30;100.00;102772.03;5030116;28;20025;-71
2023/09/30 09:32:54;;;;;;;9.75;2.80;;;;;;;22.68;100.00;102771.50;5030427;28;20438;-72
2023/09/30 09:35:20;;;;;;;8.07;2.67;;;;;;;22.60;100.00;102775.06;5030273;28;20501;-71
2023/09/30 09:38:00;;;;;;;7.85;2.22;;;;;;;22.16;100.00;102765.41;5030395;28;20034;-71
2023/09/30 09:40:28;;;;;;;8.32;2.40;;;;;;;22.03;100.00;102767.78;5030297;28;20475;-71
2023/09/30 09:42:55;;;;;;;8.82;2.50;;;;;;;22.19;100.00;102767.78;5030122;28;20041;-71
2023/09/30 09:45:25;;;;;;;5.63;2.10;;;;;;;22.10;100.00;102766.09;5012342;28;20037;-71
2023/09/30 09:47:51;;;;;;;11.00;2.50;;;;;;;22.60;100.00;102772.38;5029863;28;20029;-72
2023/09/30 09:50:19;;;;;;;11.82;3.30;;;;;;;23.33;100.00;102769.59;5029860;28;20038;-72
2023/09/30 09:52:47;;;;;;;6.40;2.20;;;;;;;23.62;90.47;102779.78;5030184;28;20064;-74
2023/09/30 09:55:15;;;;;;;10.35;2.60;;;;;;;23.60;84.63;102768.22;5029927;28;20036;-71
2023/09/30 09:57:41;;;;;;;11.88;2.50;;;;;;;23.29;84.55;102769.09;5030379;28;20088;-72
2023/09/30 10:00:13;;;;;;;13.65;2.65;;;;;;;22.94;80.91;102765.81;5033916;28;20037;-71
2023/09/30 10:02:40;;;;;;;14.32;2.53;;;;;;;22.56;81.59;102754.72;5033791;28;20112;-72
2023/09/30 10:05:06;;;;;;;10.57;2.90;;;;;;;22.53;88.84;102752.38;5015255;28;20524;-73
2023/09/30 10:07:39;;;;;;;8.15;2.50;;;;;;;22.83;85.34;102741.78;5033588;28;20041;-71
2023/09/30 10:10:13;;;;;;;7.53;2.20;;;;;;;23.12;85.05;102740.31;5033679;28;20037;-71
2023/09/30 10:12:39;;;;;;;11.18;2.70;;;;;;;22.82;83.94;102735.47;5033647;28;20029;-71
2023/09/30 10:15:26;;;;;;;10.82;2.53;;;;;;;22.70;98.80;102745.03;5015087;28;20038;-71
2023/09/30 10:18:00;;;;;;;8.98;2.55;;;;;;;22.39;93.93;102742.22;5033145;28;20030;-72
2023/09/30 10:20:30;;;;;;;7.45;2.45;;;;;;;21.63;100.00;102745.03;5032977;28;20119;-72
2023/09/30 10:23:21;;;;;;;9.25;2.25;;;;;;;20.72;100.00;102750.09;5015544;28;20117;-71
2023/09/30 10:25:48;;;;;;;13.60;2.45;;;;;;;20.01;100.00;102743.78;5032969;28;20029;-71
2023/09/30 10:28:36;;;;;;;12.52;2.90;;;;;;;19.27;100.00;102737.63;5032722;28;20055;-77
2023/09/30 10:31:12;;;;;;;8.52;2.67;;;;;;;18.89;100.00;102734.09;5015130;28;20104;-72
2023/09/30 10:34:00;;;;;;;11.57;2.60;;;;;;;18.71;100.00;102738.53;5014827;28;20026;-74
2023/09/30 10:36:38;;;;;;;8.68;3.28;;;;;;;18.66;100.00;102741.66;5017033;28;20045;-73
2023/09/30 10:39:04;;;;;;;11.25;3.03;;;;;;;18.61;100.00;102744.78;5032466;28;20056;-77
2023/09/30 10:41:44;;;;;;;11.57;2.53;;;;;;;18.52;100.00;102748.38;5015101;28;20362;-77
2023/09/30 10:44:22;;;;;;;12.48;2.60;;;;;;;18.45;100.00;102753.50;5032588;28;20040;-77
2023/09/30 10:46:50;;;;;;;13.25;2.78;;;;;;;18.43;100.00;102751.94;5032643;28;20104;-77
2023/09/30 10:49:38;;;;;;;8.05;2.50;;;;;;;18.52;100.00;102748.38;5032396;28;20391;-76
2023/09/30 10:52:04;;;;;;;9.60;2.78;;;;;;;18.58;100.00;102755.03;5032305;28;20088;-74
2023/09/30 10:54:32;;;;;;;11.05;2.65;;;;;;;18.54;100.00;102749.09;5032360;28;20175;-75
2023/09/30 10:57:03;;;;;;;8.75;2.83;;;;;;;18.40;100.00;102744.97;5032504;28;20029;-75
2023/09/30 10:59:34;;;;;;;10.80;2.88;;;;;;;18.38;100.00;102746.16;5032669;28;20025;-77
2023/09/30 11:02:00;;;;;;;8.93;2.67;;;;;;;18.34;100.00;102742.88;5032916;28;20056;-78
2023/09/30 11:04:28;;;;;;;12.63;2.78;;;;;;;18.18;100.00;102729.13;5032398;28;20029;-76
2023/09/30 11:06:53;;;;;;;7.28;2.70;;;;;;;18.10;100.00;102719.09;5032503;28;20034;-85